sensor_id;sensor_type;location;lat;lon;timestamp;P1;durP1;ratioP1;P2;durP2;ratioP2
44476;SDS011;30180;44.788;10.366;2022-08-01T00:01:42;3.28;;;1.92;;
44476;SDS011;30180;44.788;10.366;2022-08-01T00:04:10;3.25;;;1.80;;
44476;SDS011;30180;44.788;10.366;2022-08-01T00:06:38;3.55;;;2.00;;
44476;SDS011;30180;44.788;10.366;2022-08-01T00:09:08;3.15;;;1.90;;
44476;SDS011;30180;44.788;10.366;2022-08-01T00:11:49;3.97;;;1.83;;
44476;SDS011;30180;44.788;10.366;2022-08-01T00:14:31;3.33;;;2.13;;
44476;SDS011;30180;44.788;10.366;2022-08-01T00:16:59;4.10;;;1.77;;
44476;SDS011;30180;44.788;10.366;2022-08-01T00:19:32;2.90;;;1.80;;
44476;SDS011;30180;44.788;10.366;2022-08-01T00:22:01;3.13;;;1.90;;
44476;SDS011;30180;44.788;10.366;2022-08-01T00:24:31;3.60;;;2.00;;
44476;SDS011;30180;44.788;10.366;2022-08-01T00:27:00;2.45;;;1.75;;
44476;SDS011;30180;44.788;10.366;2022-08-01T00:29:28;3.83;;;2.05;;
44476;SDS011;30180;44.788;10.366;2022-08-01T00:32:17;4.15;;;1.80;;
44476;SDS011;30180;44.788;10.366;2022-08-01T00:34:45;3.53;;;1.80;;
44476;SDS011;30180;44.788;10.366;2022-08-01T00:37:14;2.50;;;1.67;;
44476;SDS011;30180;44.788;10.366;2022-08-01T00:39:44;2.33;;;1.73;;
44476;SDS011;30180;44.788;10.366;2022-08-01T00:42:12;2.65;;;1.90;;
44476;SDS011;30180;44.788;10.366;2022-08-01T00:44:40;3.55;;;1.73;;
44476;SDS011;30180;44.788;10.366;2022-08-01T00:47:09;3.40;;;1.83;;
44476;SDS011;30180;44.788;10.366;2022-08-01T00:49:37;3.40;;;1.60;;
44476;SDS011;30180;44.788;10.366;2022-08-01T00:52:05;4.20;;;1.70;;
44476;SDS011;30180;44.788;10.366;2022-08-01T00:54:35;3.03;;;1.73;;
44476;SDS011;30180;44.788;10.366;2022-08-01T00:57:05;3.05;;;1.90;;
44476;SDS011;30180;44.788;10.366;2022-08-01T00:59:35;3.08;;;1.80;;
44476;SDS011;30180;44.788;10.366;2022-08-01T01:02:06;3.55;;;1.83;;
44476;SDS011;30180;44.788;10.366;2022-08-01T01:04:41;2.70;;;1.80;;
44476;SDS011;30180;44.788;10.366;2022-08-01T01:07:12;2.65;;;1.98;;
44476;SDS011;30180;44.788;10.366;2022-08-01T01:09:49;5.45;;;1.88;;
44476;SDS011;30180;44.788;10.366;2022-08-01T01:12:27;2.80;;;1.77;;
44476;SDS011;30180;44.788;10.366;2022-08-01T01:15:04;3.47;;;2.08;;
44476;SDS011;30180;44.788;10.366;2022-08-01T01:17:36;3.20;;;1.80;;
44476;SDS011;30180;44.788;10.366;2022-08-01T01:20:17;2.63;;;1.80;;
44476;SDS011;30180;44.788;10.366;2022-08-01T01:22:53;2.78;;;1.63;;
44476;SDS011;30180;44.788;10.366;2022-08-01T01:25:39;3.20;;;2.20;;
44476;SDS011;30180;44.788;10.366;2022-08-01T01:28:20;2.45;;;1.77;;
44476;SDS011;30180;44.788;10.366;2022-08-01T01:30:58;3.35;;;1.90;;
44476;SDS011;30180;44.788;10.366;2022-08-01T01:33:29;3.22;;;1.85;;
44476;SDS011;30180;44.788;10.366;2022-08-01T01:36:00;2.60;;;1.83;;
44476;SDS011;30180;44.788;10.366;2022-08-01T01:38:38;3.70;;;1.95;;
44476;SDS011;30180;44.788;10.366;2022-08-01T01:41:09;2.58;;;2.00;;
44476;SDS011;30180;44.788;10.366;2022-08-01T01:43:40;2.30;;;1.70;;
44476;SDS011;30180;44.788;10.366;2022-08-01T01:46:11;2.60;;;1.90;;
44476;SDS011;30180;44.788;10.366;2022-08-01T01:48:43;3.50;;;2.10;;
44476;SDS011;30180;44.788;10.366;2022-08-01T01:51:12;2.53;;;1.80;;
44476;SDS011;30180;44.788;10.366;2022-08-01T01:53:45;3.83;;;1.75;;
44476;SDS011;30180;44.788;10.366;2022-08-01T01:56:15;2.65;;;1.70;;
44476;SDS011;30180;44.788;10.366;2022-08-01T01:58:45;3.00;;;1.77;;
44476;SDS011;30180;44.788;10.366;2022-08-01T02:01:20;3.17;;;1.90;;
44476;SDS011;30180;44.788;10.366;2022-08-01T02:04:10;4.35;;;1.83;;
44476;SDS011;30180;44.788;10.366;2022-08-01T02:06:39;3.95;;;1.88;;
44476;SDS011;30180;44.788;10.366;2022-08-01T02:09:08;2.80;;;1.75;;
44476;SDS011;30180;44.788;10.366;2022-08-01T02:11:37;2.65;;;1.70;;
44476;SDS011;30180;44.788;10.366;2022-08-01T02:14:27;2.50;;;1.60;;
44476;SDS011;30180;44.788;10.366;2022-08-01T02:16:57;3.03;;;1.70;;
44476;SDS011;30180;44.788;10.366;2022-08-01T02:19:30;2.22;;;1.63;;
44476;SDS011;30180;44.788;10.366;2022-08-01T02:22:04;2.83;;;1.80;;
44476;SDS011;30180;44.788;10.366;2022-08-01T02:24:38;2.80;;;1.92;;
44476;SDS011;30180;44.788;10.366;2022-08-01T02:27:11;2.67;;;2.08;;
44476;SDS011;30180;44.788;10.366;2022-08-01T02:29:43;2.58;;;1.92;;
44476;SDS011;30180;44.788;10.366;2022-08-01T02:32:20;2.50;;;1.90;;
44476;SDS011;30180;44.788;10.366;2022-08-01T02:34:58;2.58;;;1.77;;
44476;SDS011;30180;44.788;10.366;2022-08-01T02:37:28;2.63;;;1.92;;
44476;SDS011;30180;44.788;10.366;2022-08-01T02:40:01;3.22;;;1.95;;
44476;SDS011;30180;44.788;10.366;2022-08-01T02:42:30;2.28;;;1.73;;
44476;SDS011;30180;44.788;10.366;2022-08-01T02:45:02;2.60;;;1.80;;
44476;SDS011;30180;44.788;10.366;2022-08-01T02:47:33;3.33;;;2.20;;
44476;SDS011;30180;44.788;10.366;2022-08-01T02:50:04;2.17;;;1.77;;
44476;SDS011;30180;44.788;10.366;2022-08-01T02:52:34;2.88;;;1.95;;
44476;SDS011;30180;44.788;10.366;2022-08-01T02:55:05;2.60;;;1.83;;
44476;SDS011;30180;44.788;10.366;2022-08-01T03:00:54;2.95;;;2.00;;
44476;SDS011;30180;44.788;10.366;2022-08-01T03:03:15;2.65;;;1.90;;
44476;SDS011;30180;44.788;10.366;2022-08-01T03:05:44;4.13;;;2.15;;
44476;SDS011;30180;44.788;10.366;2022-08-01T03:08:13;3.80;;;1.80;;
44476;SDS011;30180;44.788;10.366;2022-08-01T03:10:44;3.08;;;2.08;;
44476;SDS011;30180;44.788;10.366;2022-08-01T03:13:14;2.37;;;1.80;;
44476;SDS011;30180;44.788;10.366;2022-08-01T03:15:44;2.92;;;2.00;;
44476;SDS011;30180;44.788;10.366;2022-08-01T03:18:15;2.67;;;1.93;;
44476;SDS011;30180;44.788;10.366;2022-08-01T03:20:45;3.05;;;1.77;;
44476;SDS011;30180;44.788;10.366;2022-08-01T03:23:14;3.22;;;1.73;;
44476;SDS011;30180;44.788;10.366;2022-08-01T03:25:43;3.05;;;1.80;;
44476;SDS011;30180;44.788;10.366;2022-08-01T03:28:13;3.38;;;2.20;;
44476;SDS011;30180;44.788;10.366;2022-08-01T03:30:43;3.33;;;2.13;;
44476;SDS011;30180;44.788;10.366;2022-08-01T03:33:12;3.47;;;2.08;;
44476;SDS011;30180;44.788;10.366;2022-08-01T03:35:46;2.92;;;2.10;;
44476;SDS011;30180;44.788;10.366;2022-08-01T03:38:18;2.42;;;1.80;;
44476;SDS011;30180;44.788;10.366;2022-08-01T03:40:49;2.85;;;1.80;;
44476;SDS011;30180;44.788;10.366;2022-08-01T03:43:34;3.25;;;2.15;;
44476;SDS011;30180;44.788;10.366;2022-08-01T03:46:09;3.17;;;1.98;;
44476;SDS011;30180;44.788;10.366;2022-08-01T03:48:43;4.13;;;2.00;;
44476;SDS011;30180;44.788;10.366;2022-08-01T03:51:24;3.13;;;1.92;;
44476;SDS011;30180;44.788;10.366;2022-08-01T03:53:53;3.67;;;1.80;;
44476;SDS011;30180;44.788;10.366;2022-08-01T03:56:22;4.85;;;1.92;;
44476;SDS011;30180;44.788;10.366;2022-08-01T03:58:53;3.38;;;2.25;;
44476;SDS011;30180;44.788;10.366;2022-08-01T04:01:21;3.17;;;2.00;;
44476;SDS011;30180;44.788;10.366;2022-08-01T04:03:50;4.10;;;2.10;;
44476;SDS011;30180;44.788;10.366;2022-08-01T04:06:19;5.10;;;2.10;;
44476;SDS011;30180;44.788;10.366;2022-08-01T04:08:48;2.95;;;2.03;;
44476;SDS011;30180;44.788;10.366;2022-08-01T04:11:23;4.32;;;2.05;;
44476;SDS011;30180;44.788;10.366;2022-08-01T04:13:54;3.78;;;1.88;;
44476;SDS011;30180;44.788;10.366;2022-08-01T04:16:23;3.65;;;2.10;;
44476;SDS011;30180;44.788;10.366;2022-08-01T04:18:52;3.25;;;2.10;;
44476;SDS011;30180;44.788;10.366;2022-08-01T04:21:22;3.42;;;2.05;;
44476;SDS011;30180;44.788;10.366;2022-08-01T04:23:55;5.40;;;2.20;;
44476;SDS011;30180;44.788;10.366;2022-08-01T04:26:26;5.88;;;2.10;;
44476;SDS011;30180;44.788;10.366;2022-08-01T04:28:56;2.50;;;1.98;;
44476;SDS011;30180;44.788;10.366;2022-08-01T04:31:26;5.18;;;2.03;;
44476;SDS011;30180;44.788;10.366;2022-08-01T04:33:58;5.50;;;2.25;;
44476;SDS011;30180;44.788;10.366;2022-08-01T04:36:28;3.58;;;1.80;;
44476;SDS011;30180;44.788;10.366;2022-08-01T04:39:01;3.63;;;2.00;;
44476;SDS011;30180;44.788;10.366;2022-08-01T04:41:31;2.85;;;1.98;;
44476;SDS011;30180;44.788;10.366;2022-08-01T04:44:02;3.38;;;2.13;;
44476;SDS011;30180;44.788;10.366;2022-08-01T04:46:30;3.17;;;1.80;;
44476;SDS011;30180;44.788;10.366;2022-08-01T04:49:01;6.63;;;2.22;;
44476;SDS011;30180;44.788;10.366;2022-08-01T04:51:29;3.47;;;2.28;;
44476;SDS011;30180;44.788;10.366;2022-08-01T04:53:58;3.38;;;2.00;;
44476;SDS011;30180;44.788;10.366;2022-08-01T04:56:28;4.55;;;2.10;;
44476;SDS011;30180;44.788;10.366;2022-08-01T04:58:56;3.50;;;2.22;;
44476;SDS011;30180;44.788;10.366;2022-08-01T05:01:48;3.65;;;1.90;;
44476;SDS011;30180;44.788;10.366;2022-08-01T05:04:17;5.97;;;2.20;;
44476;SDS011;30180;44.788;10.366;2022-08-01T05:06:45;2.88;;;1.80;;
44476;SDS011;30180;44.788;10.366;2022-08-01T05:09:13;3.85;;;1.95;;
44476;SDS011;30180;44.788;10.366;2022-08-01T05:11:43;3.63;;;1.98;;
44476;SDS011;30180;44.788;10.366;2022-08-01T05:14:11;4.05;;;2.15;;
44476;SDS011;30180;44.788;10.366;2022-08-01T05:16:39;2.75;;;1.77;;
44476;SDS011;30180;44.788;10.366;2022-08-01T05:19:08;2.60;;;1.70;;
44476;SDS011;30180;44.788;10.366;2022-08-01T05:21:36;3.72;;;2.28;;
44476;SDS011;30180;44.788;10.366;2022-08-01T05:24:04;4.82;;;2.00;;
44476;SDS011;30180;44.788;10.366;2022-08-01T05:26:34;2.65;;;1.98;;
44476;SDS011;30180;44.788;10.366;2022-08-01T05:29:03;4.20;;;1.95;;
44476;SDS011;30180;44.788;10.366;2022-08-01T05:31:31;4.30;;;1.98;;
44476;SDS011;30180;44.788;10.366;2022-08-01T05:34:01;3.90;;;1.80;;
44476;SDS011;30180;44.788;10.366;2022-08-01T05:36:29;3.53;;;1.90;;
44476;SDS011;30180;44.788;10.366;2022-08-01T05:38:57;2.47;;;1.75;;
44476;SDS011;30180;44.788;10.366;2022-08-01T05:41:26;3.83;;;1.80;;
44476;SDS011;30180;44.788;10.366;2022-08-01T05:43:54;3.42;;;1.98;;
44476;SDS011;30180;44.788;10.366;2022-08-01T05:46:23;2.58;;;1.95;;
44476;SDS011;30180;44.788;10.366;2022-08-01T05:48:52;3.10;;;1.95;;
44476;SDS011;30180;44.788;10.366;2022-08-01T05:51:21;4.03;;;2.08;;
44476;SDS011;30180;44.788;10.366;2022-08-01T05:53:49;3.08;;;1.55;;
44476;SDS011;30180;44.788;10.366;2022-08-01T05:56:18;4.07;;;1.90;;
44476;SDS011;30180;44.788;10.366;2022-08-01T05:58:46;3.95;;;1.88;;
44476;SDS011;30180;44.788;10.366;2022-08-01T06:01:14;4.60;;;1.90;;
44476;SDS011;30180;44.788;10.366;2022-08-01T06:03:44;4.28;;;1.80;;
44476;SDS011;30180;44.788;10.366;2022-08-01T06:06:13;3.75;;;1.90;;
44476;SDS011;30180;44.788;10.366;2022-08-01T06:08:41;3.22;;;1.70;;
44476;SDS011;30180;44.788;10.366;2022-08-01T06:11:09;3.60;;;1.98;;
44476;SDS011;30180;44.788;10.366;2022-08-01T06:13:38;4.93;;;2.20;;
44476;SDS011;30180;44.788;10.366;2022-08-01T06:16:14;4.85;;;1.90;;
44476;SDS011;30180;44.788;10.366;2022-08-01T06:18:43;3.30;;;1.90;;
44476;SDS011;30180;44.788;10.366;2022-08-01T06:21:12;2.60;;;1.87;;
44476;SDS011;30180;44.788;10.366;2022-08-01T06:23:40;4.57;;;1.90;;
44476;SDS011;30180;44.788;10.366;2022-08-01T06:26:08;2.38;;;1.80;;
44476;SDS011;30180;44.788;10.366;2022-08-01T06:28:37;2.50;;;1.70;;
44476;SDS011;30180;44.788;10.366;2022-08-01T06:31:05;3.88;;;1.80;;
44476;SDS011;30180;44.788;10.366;2022-08-01T06:33:33;3.00;;;1.70;;
44476;SDS011;30180;44.788;10.366;2022-08-01T06:36:03;4.15;;;1.70;;
44476;SDS011;30180;44.788;10.366;2022-08-01T06:38:32;3.50;;;1.80;;
44476;SDS011;30180;44.788;10.366;2022-08-01T06:41:00;3.45;;;1.77;;
44476;SDS011;30180;44.788;10.366;2022-08-01T06:43:28;3.13;;;1.88;;
44476;SDS011;30180;44.788;10.366;2022-08-01T06:46:06;2.35;;;1.80;;
44476;SDS011;30180;44.788;10.366;2022-08-01T06:48:34;2.30;;;1.80;;
44476;SDS011;30180;44.788;10.366;2022-08-01T06:51:07;2.78;;;1.77;;
44476;SDS011;30180;44.788;10.366;2022-08-01T06:53:35;2.67;;;1.67;;
44476;SDS011;30180;44.788;10.366;2022-08-01T06:56:05;4.40;;;1.98;;
44476;SDS011;30180;44.788;10.366;2022-08-01T06:58:35;6.53;;;1.90;;
44476;SDS011;30180;44.788;10.366;2022-08-01T07:01:03;4.47;;;2.10;;
44476;SDS011;30180;44.788;10.366;2022-08-01T07:03:33;4.80;;;1.80;;
44476;SDS011;30180;44.788;10.366;2022-08-01T07:06:21;3.30;;;1.95;;
44476;SDS011;30180;44.788;10.366;2022-08-01T07:08:50;3.80;;;1.80;;
44476;SDS011;30180;44.788;10.366;2022-08-01T07:11:19;3.45;;;1.90;;
44476;SDS011;30180;44.788;10.366;2022-08-01T07:13:48;4.63;;;2.00;;
44476;SDS011;30180;44.788;10.366;2022-08-01T07:16:16;4.32;;;1.85;;
44476;SDS011;30180;44.788;10.366;2022-08-01T07:18:45;5.50;;;1.92;;
44476;SDS011;30180;44.788;10.366;2022-08-01T07:21:13;2.78;;;1.70;;
44476;SDS011;30180;44.788;10.366;2022-08-01T07:24:03;4.40;;;1.98;;
44476;SDS011;30180;44.788;10.366;2022-08-01T07:26:39;2.85;;;1.90;;
44476;SDS011;30180;44.788;10.366;2022-08-01T07:29:19;3.88;;;2.10;;
44476;SDS011;30180;44.788;10.366;2022-08-01T07:31:48;4.65;;;1.70;;
44476;SDS011;30180;44.788;10.366;2022-08-01T07:34:16;5.15;;;1.90;;
44476;SDS011;30180;44.788;10.366;2022-08-01T07:36:45;3.50;;;2.10;;
44476;SDS011;30180;44.788;10.366;2022-08-01T07:39:14;3.28;;;1.60;;
44476;SDS011;30180;44.788;10.366;2022-08-01T07:41:43;3.10;;;2.20;;
44476;SDS011;30180;44.788;10.366;2022-08-01T07:44:31;5.50;;;1.90;;
44476;SDS011;30180;44.788;10.366;2022-08-01T07:46:59;6.50;;;1.98;;
44476;SDS011;30180;44.788;10.366;2022-08-01T07:49:27;6.70;;;1.95;;
44476;SDS011;30180;44.788;10.366;2022-08-01T07:52:01;5.32;;;2.03;;
44476;SDS011;30180;44.788;10.366;2022-08-01T07:54:52;4.38;;;2.20;;
44476;SDS011;30180;44.788;10.366;2022-08-01T07:57:21;3.67;;;2.03;;
44476;SDS011;30180;44.788;10.366;2022-08-01T07:59:49;4.45;;;2.00;;
44476;SDS011;30180;44.788;10.366;2022-08-01T08:02:17;5.07;;;2.08;;
44476;SDS011;30180;44.788;10.366;2022-08-01T08:04:46;6.10;;;2.00;;
44476;SDS011;30180;44.788;10.366;2022-08-01T08:07:14;4.13;;;2.05;;
44476;SDS011;30180;44.788;10.366;2022-08-01T08:09:43;5.20;;;2.20;;
44476;SDS011;30180;44.788;10.366;2022-08-01T08:12:18;4.88;;;2.30;;
44476;SDS011;30180;44.788;10.366;2022-08-01T08:14:55;4.95;;;2.15;;
44476;SDS011;30180;44.788;10.366;2022-08-01T08:17:24;5.30;;;2.50;;
44476;SDS011;30180;44.788;10.366;2022-08-01T08:19:53;9.77;;;2.67;;
44476;SDS011;30180;44.788;10.366;2022-08-01T08:22:21;4.15;;;2.50;;
44476;SDS011;30180;44.788;10.366;2022-08-01T08:24:49;6.20;;;2.40;;
44476;SDS011;30180;44.788;10.366;2022-08-01T08:27:19;8.13;;;2.85;;
44476;SDS011;30180;44.788;10.366;2022-08-01T08:29:47;6.32;;;2.30;;
44476;SDS011;30180;44.788;10.366;2022-08-01T08:32:16;5.85;;;2.60;;
44476;SDS011;30180;44.788;10.366;2022-08-01T08:34:44;4.03;;;1.80;;
44476;SDS011;30180;44.788;10.366;2022-08-01T08:37:12;6.18;;;2.35;;
44476;SDS011;30180;44.788;10.366;2022-08-01T08:39:41;10.70;;;2.42;;
44476;SDS011;30180;44.788;10.366;2022-08-01T08:42:10;4.00;;;2.22;;
44476;SDS011;30180;44.788;10.366;2022-08-01T08:44:56;6.10;;;2.40;;
44476;SDS011;30180;44.788;10.366;2022-08-01T08:47:28;4.70;;;2.30;;
44476;SDS011;30180;44.788;10.366;2022-08-01T08:49:59;4.43;;;2.10;;
44476;SDS011;30180;44.788;10.366;2022-08-01T08:52:30;5.50;;;2.30;;
44476;SDS011;30180;44.788;10.366;2022-08-01T08:55:02;4.75;;;2.50;;
44476;SDS011;30180;44.788;10.366;2022-08-01T08:57:31;7.20;;;2.45;;
44476;SDS011;30180;44.788;10.366;2022-08-01T09:00:01;4.95;;;2.15;;
44476;SDS011;30180;44.788;10.366;2022-08-01T09:02:30;5.28;;;2.25;;
44476;SDS011;30180;44.788;10.366;2022-08-01T09:04:58;7.40;;;2.22;;
44476;SDS011;30180;44.788;10.366;2022-08-01T09:07:27;8.43;;;2.58;;
44476;SDS011;30180;44.788;10.366;2022-08-01T09:09:55;6.43;;;2.42;;
44476;SDS011;30180;44.788;10.366;2022-08-01T09:12:23;5.72;;;2.40;;
44476;SDS011;30180;44.788;10.366;2022-08-01T09:14:51;5.57;;;2.25;;
44476;SDS011;30180;44.788;10.366;2022-08-01T09:17:22;6.90;;;2.58;;
44476;SDS011;30180;44.788;10.366;2022-08-01T09:19:51;7.30;;;3.33;;
44476;SDS011;30180;44.788;10.366;2022-08-01T09:22:23;5.15;;;2.50;;
44476;SDS011;30180;44.788;10.366;2022-08-01T09:24:59;14.82;;;3.13;;
44476;SDS011;30180;44.788;10.366;2022-08-01T09:27:28;5.35;;;2.60;;
44476;SDS011;30180;44.788;10.366;2022-08-01T09:30:06;4.95;;;2.72;;
44476;SDS011;30180;44.788;10.366;2022-08-01T09:32:38;6.10;;;2.72;;
44476;SDS011;30180;44.788;10.366;2022-08-01T09:35:23;8.65;;;2.70;;
44476;SDS011;30180;44.788;10.366;2022-08-01T09:38:16;5.35;;;2.72;;
44476;SDS011;30180;44.788;10.366;2022-08-01T09:40:49;12.07;;;3.20;;
44476;SDS011;30180;44.788;10.366;2022-08-01T09:43:22;5.43;;;2.58;;
44476;SDS011;30180;44.788;10.366;2022-08-01T09:45:52;6.00;;;2.50;;
44476;SDS011;30180;44.788;10.366;2022-08-01T09:48:24;6.70;;;2.92;;
44476;SDS011;30180;44.788;10.366;2022-08-01T09:50:56;6.35;;;2.38;;
44476;SDS011;30180;44.788;10.366;2022-08-01T09:53:40;5.18;;;2.83;;
44476;SDS011;30180;44.788;10.366;2022-08-01T09:56:18;6.65;;;3.33;;
44476;SDS011;30180;44.788;10.366;2022-08-01T09:58:55;7.00;;;3.27;;
44476;SDS011;30180;44.788;10.366;2022-08-01T10:01:27;8.48;;;2.78;;
44476;SDS011;30180;44.788;10.366;2022-08-01T10:04:10;6.35;;;2.70;;
44476;SDS011;30180;44.788;10.366;2022-08-01T10:06:41;5.80;;;2.97;;
44476;SDS011;30180;44.788;10.366;2022-08-01T10:09:11;5.63;;;2.75;;
44476;SDS011;30180;44.788;10.366;2022-08-01T10:11:41;4.93;;;2.78;;
44476;SDS011;30180;44.788;10.366;2022-08-01T10:14:13;6.10;;;2.65;;
44476;SDS011;30180;44.788;10.366;2022-08-01T10:19:32;5.85;;;2.33;;
44476;SDS011;30180;44.788;10.366;2022-08-01T10:22:01;4.50;;;2.40;;
44476;SDS011;30180;44.788;10.366;2022-08-01T10:24:34;6.53;;;2.58;;
44476;SDS011;30180;44.788;10.366;2022-08-01T10:27:06;4.95;;;2.55;;
44476;SDS011;30180;44.788;10.366;2022-08-01T10:29:41;6.20;;;2.70;;
44476;SDS011;30180;44.788;10.366;2022-08-01T10:32:34;4.40;;;2.47;;
44476;SDS011;30180;44.788;10.366;2022-08-01T10:35:06;5.40;;;2.85;;
44476;SDS011;30180;44.788;10.366;2022-08-01T10:37:41;8.68;;;2.88;;
44476;SDS011;30180;44.788;10.366;2022-08-01T10:40:18;5.88;;;2.78;;
44476;SDS011;30180;44.788;10.366;2022-08-01T10:42:57;8.07;;;2.83;;
44476;SDS011;30180;44.788;10.366;2022-08-01T10:45:25;3.50;;;2.17;;
44476;SDS011;30180;44.788;10.366;2022-08-01T10:47:57;6.15;;;2.20;;
44476;SDS011;30180;44.788;10.366;2022-08-01T10:50:33;5.65;;;2.30;;
44476;SDS011;30180;44.788;10.366;2022-08-01T10:53:07;4.10;;;2.00;;
44476;SDS011;30180;44.788;10.366;2022-08-01T10:55:48;5.57;;;2.00;;
44476;SDS011;30180;44.788;10.366;2022-08-01T10:58:24;5.60;;;2.22;;
44476;SDS011;30180;44.788;10.366;2022-08-01T11:03:55;6.75;;;2.25;;
44476;SDS011;30180;44.788;10.366;2022-08-01T11:06:38;6.65;;;2.33;;
44476;SDS011;30180;44.788;10.366;2022-08-01T11:09:19;4.90;;;2.20;;
44476;SDS011;30180;44.788;10.366;2022-08-01T11:12:03;4.13;;;2.00;;
44476;SDS011;30180;44.788;10.366;2022-08-01T11:17:56;3.28;;;2.20;;
44476;SDS011;30180;44.788;10.366;2022-08-01T11:29:11;4.78;;;2.38;;
44476;SDS011;30180;44.788;10.366;2022-08-01T11:31:48;3.97;;;2.30;;
44476;SDS011;30180;44.788;10.366;2022-08-01T11:34:18;4.50;;;2.25;;
44476;SDS011;30180;44.788;10.366;2022-08-01T11:36:47;4.50;;;2.22;;
44476;SDS011;30180;44.788;10.366;2022-08-01T11:39:36;3.00;;;2.10;;
44476;SDS011;30180;44.788;10.366;2022-08-01T11:42:18;3.60;;;2.40;;
44476;SDS011;30180;44.788;10.366;2022-08-01T11:44:48;3.15;;;2.15;;
44476;SDS011;30180;44.788;10.366;2022-08-01T11:47:17;3.10;;;2.10;;
44476;SDS011;30180;44.788;10.366;2022-08-01T11:50:06;5.07;;;2.47;;
44476;SDS011;30180;44.788;10.366;2022-08-01T11:52:56;4.55;;;2.28;;
44476;SDS011;30180;44.788;10.366;2022-08-01T11:55:27;4.28;;;2.30;;
44476;SDS011;30180;44.788;10.366;2022-08-01T11:58:00;6.63;;;2.25;;
44476;SDS011;30180;44.788;10.366;2022-08-01T12:00:30;3.42;;;2.33;;
44476;SDS011;30180;44.788;10.366;2022-08-01T12:03:00;3.47;;;1.90;;
44476;SDS011;30180;44.788;10.366;2022-08-01T12:05:33;3.13;;;2.05;;
44476;SDS011;30180;44.788;10.366;2022-08-01T12:08:08;3.22;;;2.45;;
44476;SDS011;30180;44.788;10.366;2022-08-01T12:10:38;6.25;;;2.50;;
44476;SDS011;30180;44.788;10.366;2022-08-01T12:13:15;3.95;;;2.50;;
44476;SDS011;30180;44.788;10.366;2022-08-01T12:15:45;3.42;;;2.15;;
44476;SDS011;30180;44.788;10.366;2022-08-01T12:18:18;4.55;;;2.28;;
44476;SDS011;30180;44.788;10.366;2022-08-01T12:20:47;4.38;;;2.25;;
44476;SDS011;30180;44.788;10.366;2022-08-01T12:23:22;5.38;;;2.20;;
44476;SDS011;30180;44.788;10.366;2022-08-01T12:25:52;3.60;;;2.40;;
44476;SDS011;30180;44.788;10.366;2022-08-01T12:28:20;4.10;;;2.13;;
44476;SDS011;30180;44.788;10.366;2022-08-01T12:30:49;2.90;;;2.10;;
44476;SDS011;30180;44.788;10.366;2022-08-01T12:33:18;3.03;;;2.13;;
44476;SDS011;30180;44.788;10.366;2022-08-01T12:35:48;6.68;;;2.20;;
44476;SDS011;30180;44.788;10.366;2022-08-01T12:38:20;4.82;;;2.20;;
44476;SDS011;30180;44.788;10.366;2022-08-01T12:40:53;3.13;;;1.90;;
44476;SDS011;30180;44.788;10.366;2022-08-01T12:43:22;2.92;;;2.00;;
44476;SDS011;30180;44.788;10.366;2022-08-01T12:45:55;3.03;;;2.22;;
44476;SDS011;30180;44.788;10.366;2022-08-01T12:48:24;2.88;;;1.90;;
44476;SDS011;30180;44.788;10.366;2022-08-01T12:50:54;2.85;;;2.05;;
44476;SDS011;30180;44.788;10.366;2022-08-01T12:53:26;4.68;;;2.35;;
44476;SDS011;30180;44.788;10.366;2022-08-01T12:56:08;4.70;;;2.00;;
44476;SDS011;30180;44.788;10.366;2022-08-01T12:58:37;3.60;;;1.73;;
44476;SDS011;30180;44.788;10.366;2022-08-01T13:01:06;3.05;;;2.05;;
44476;SDS011;30180;44.788;10.366;2022-08-01T13:03:37;3.50;;;2.10;;
44476;SDS011;30180;44.788;10.366;2022-08-01T13:06:12;6.18;;;2.20;;
44476;SDS011;30180;44.788;10.366;2022-08-01T13:08:43;3.47;;;2.20;;
44476;SDS011;30180;44.788;10.366;2022-08-01T13:11:14;3.15;;;1.90;;
44476;SDS011;30180;44.788;10.366;2022-08-01T13:13:50;3.22;;;2.08;;
44476;SDS011;30180;44.788;10.366;2022-08-01T13:16:20;3.88;;;2.10;;
44476;SDS011;30180;44.788;10.366;2022-08-01T13:19:08;4.63;;;2.03;;
44476;SDS011;30180;44.788;10.366;2022-08-01T13:21:36;3.90;;;1.83;;
44476;SDS011;30180;44.788;10.366;2022-08-01T13:24:22;2.80;;;1.95;;
44476;SDS011;30180;44.788;10.366;2022-08-01T13:26:54;3.70;;;2.30;;
44476;SDS011;30180;44.788;10.366;2022-08-01T13:29:29;2.70;;;1.85;;
44476;SDS011;30180;44.788;10.366;2022-08-01T13:32:00;3.85;;;1.90;;
44476;SDS011;30180;44.788;10.366;2022-08-01T13:35:00;3.92;;;2.00;;
44476;SDS011;30180;44.788;10.366;2022-08-01T13:37:28;3.42;;;1.90;;
44476;SDS011;30180;44.788;10.366;2022-08-01T13:39:57;2.80;;;1.90;;
44476;SDS011;30180;44.788;10.366;2022-08-01T13:42:27;2.10;;;1.60;;
44476;SDS011;30180;44.788;10.366;2022-08-01T13:47:25;5.82;;;1.77;;
44476;SDS011;30180;44.788;10.366;2022-08-01T13:49:57;2.30;;;1.67;;
44476;SDS011;30180;44.788;10.366;2022-08-01T13:52:27;3.60;;;1.80;;
44476;SDS011;30180;44.788;10.366;2022-08-01T13:54:55;2.70;;;1.77;;
44476;SDS011;30180;44.788;10.366;2022-08-01T13:57:24;3.40;;;1.80;;
44476;SDS011;30180;44.788;10.366;2022-08-01T14:00:04;3.35;;;1.80;;
44476;SDS011;30180;44.788;10.366;2022-08-01T14:02:34;2.85;;;1.80;;
44476;SDS011;30180;44.788;10.366;2022-08-01T14:05:03;2.35;;;1.70;;
44476;SDS011;30180;44.788;10.366;2022-08-01T14:07:32;4.20;;;1.80;;
44476;SDS011;30180;44.788;10.366;2022-08-01T14:10:03;3.83;;;2.00;;
44476;SDS011;30180;44.788;10.366;2022-08-01T14:12:45;4.18;;;2.00;;
44476;SDS011;30180;44.788;10.366;2022-08-01T14:15:15;3.22;;;1.92;;
44476;SDS011;30180;44.788;10.366;2022-08-01T14:18:04;2.40;;;1.92;;
44476;SDS011;30180;44.788;10.366;2022-08-01T14:20:34;2.92;;;2.03;;
44476;SDS011;30180;44.788;10.366;2022-08-01T14:23:04;4.22;;;1.85;;
44476;SDS011;30180;44.788;10.366;2022-08-01T14:25:34;2.38;;;1.65;;
44476;SDS011;30180;44.788;10.366;2022-08-01T14:28:23;3.08;;;1.70;;
44476;SDS011;30180;44.788;10.366;2022-08-01T14:30:55;3.75;;;1.98;;
44476;SDS011;30180;44.788;10.366;2022-08-01T14:33:24;2.75;;;1.80;;
44476;SDS011;30180;44.788;10.366;2022-08-01T14:35:53;4.07;;;1.80;;
44476;SDS011;30180;44.788;10.366;2022-08-01T14:38:41;4.32;;;1.90;;
44476;SDS011;30180;44.788;10.366;2022-08-01T14:41:12;4.78;;;1.92;;
44476;SDS011;30180;44.788;10.366;2022-08-01T14:43:41;3.72;;;2.10;;
44476;SDS011;30180;44.788;10.366;2022-08-01T14:46:10;2.88;;;2.05;;
44476;SDS011;30180;44.788;10.366;2022-08-01T14:48:39;3.03;;;2.20;;
44476;SDS011;30180;44.788;10.366;2022-08-01T14:51:07;4.53;;;1.95;;
44476;SDS011;30180;44.788;10.366;2022-08-01T14:53:36;2.78;;;2.08;;
44476;SDS011;30180;44.788;10.366;2022-08-01T14:56:08;2.75;;;1.83;;
44476;SDS011;30180;44.788;10.366;2022-08-01T14:58:36;2.40;;;1.73;;
44476;SDS011;30180;44.788;10.366;2022-08-01T15:01:05;3.78;;;2.17;;
44476;SDS011;30180;44.788;10.366;2022-08-01T15:03:36;2.60;;;1.90;;
44476;SDS011;30180;44.788;10.366;2022-08-01T15:06:04;3.78;;;1.95;;
44476;SDS011;30180;44.788;10.366;2022-08-01T15:08:35;4.93;;;2.00;;
44476;SDS011;30180;44.788;10.366;2022-08-01T15:11:04;12.23;;;2.47;;
44476;SDS011;30180;44.788;10.366;2022-08-01T15:13:32;6.15;;;2.00;;
44476;SDS011;30180;44.788;10.366;2022-08-01T15:16:05;5.18;;;2.17;;
44476;SDS011;30180;44.788;10.366;2022-08-01T15:18:38;3.90;;;1.73;;
44476;SDS011;30180;44.788;10.366;2022-08-01T15:21:08;4.35;;;2.75;;
44476;SDS011;30180;44.788;10.366;2022-08-01T15:23:42;7.88;;;2.00;;
44476;SDS011;30180;44.788;10.366;2022-08-01T15:26:10;3.13;;;1.90;;